Ginys del Meteocat
Campanya meteocatpedra

Dades de l'estació automàtica Alfarràs

?
?
Resum diari 23:00 TU
Dades diàries de l'estació meteorològica
Temperatura mitjana 10.8 °C
Temperatura màxima 16.7 °C 16:08 TU
Temperatura mínima 6.9 °C 4:48 TU
Humitat relativa mitjana 90%
Precipitació acumulada 0.0 mm
Ratxa màxima del vent (2 m) 10.4 km/h - 138º 11:23 TU

El tram horari està expressat en Temps Universal (TU). Cal sumar una hora en horari d'hivern i dues en horari d'estiu per passar a l'hora oficial.

Alfarràs

Metadades estació meteorol´gica
Municipi Alfarràs
Comarca Segrià
Altitud 268 m
Data alta 17.09.1997
Estat actual Operativa
Dades de període
Període
TU
TM
°C
TX
°C
TN
°C
HRM
%
PPT
mm
VVM (2 m)
km/h
DVM (2 m)
graus
VVX (2 m)
km/h
00:00 - 00:30 10.5 10.9 10.3 96 0.0 0.7 38 6.1
00:30 - 01:00 10.6 10.9 10.4 93 0.0 1.8 349 5.0
01:00 - 01:30 9.7 10.3 9.4 96 0.0 1.4 348 4.0
01:30 - 02:00 8.9 9.5 8.7 98 0.0 1.8 341 4.0
02:00 - 02:30 8.5 8.7 8.2 98 0.0 2.5 323 5.8
02:30 - 03:00 7.9 8.4 7.3 98 0.0 0.7 39 4.3
03:00 - 03:30 7.5 8.1 7.1 99 0.0 1.4 351 7.2
03:30 - 04:00 7.6 8.0 7.3 100 0.0 0.7 34 3.6
04:00 - 04:30 7.5 7.7 7.2 100 0.0 1.8 357 4.0
04:30 - 05:00 7.2 7.9 6.9 100 0.0 0.7 330 3.6
05:00 - 05:30 8.1 8.3 7.9 100 0.0 1.8 301 6.1
05:30 - 06:00 8.2 8.2 8.0 100 0.0 2.2 316 5.8
06:00 - 06:30 7.8 8.1 7.7 100 0.0 1.8 346 5.0
06:30 - 07:00 8.3 8.5 8.1 100 0.0 0.4 354 1.8
07:00 - 07:30 8.5 8.7 8.4 100 0.0 0.7 205 2.9
07:30 - 08:00 8.8 9.1 8.7 100 0.0 1.1 131 3.2
08:00 - 08:30 9.1 9.2 8.9 100 0.0 2.5 134 4.7
08:30 - 09:00 9.2 9.4 9.1 100 0.0 1.1 135 3.6
09:00 - 09:30 9.6 9.7 9.4 99 0.0 1.1 113 3.6
09:30 - 10:00 10.1 10.4 9.8 97 0.0 1.4 124 3.6
10:00 - 10:30 10.7 11.2 10.4 93 0.0 1.4 115 4.0
10:30 - 11:00 11.6 12.3 11.2 89 0.0 2.5 99 7.9
11:00 - 11:30 12.4 12.6 12.2 84 0.0 3.6 145 10.4
11:30 - 12:00 12.7 13.0 12.4 81 0.0 3.2 142 9.7
12:00 - 12:30 13.1 13.6 12.7 80 0.0 2.9 221 7.6
12:30 - 13:00 13.2 13.4 12.8 80 0.0 2.5 189 7.6
13:00 - 13:30 14.4 16.0 13.3 74 0.0 2.2 222 7.2
13:30 - 14:00 15.7 16.3 15.1 70 0.0 3.6 196 9.0
14:00 - 14:30 15.9 16.3 15.7 68 0.0 4.7 197 9.4
14:30 - 15:00 16.2 16.5 15.8 66 0.0 2.9 159 6.8
15:00 - 15:30 15.9 16.2 15.6 67 0.0 2.5 134 7.6
15:30 - 16:00 16.4 16.6 16.2 64 0.0 1.4 158 4.3
16:00 - 16:30 16.2 16.7 14.9 65 0.0 1.4 185 6.1
16:30 - 17:00 13.8 14.8 12.8 78 0.0 2.5 163 6.5
17:00 - 17:30 11.6 12.8 10.5 90 0.0 0.4 340 2.2
17:30 - 18:00 10.3 10.5 10.0 96 0.0 0.7 325 2.9
18:00 - 18:30 10.2 10.8 9.8 96 0.0 1.1 326 4.7
18:30 - 19:00 10.2 10.7 10.0 94 0.0 1.1 340 4.0
19:00 - 19:30 10.1 10.2 9.8 94 0.0 1.8 324 5.4
19:30 - 20:00 10.1 10.2 10.0 93 0.0 2.5 303 5.4
20:00 - 20:30 10.1 10.3 10.0 93 0.0 3.2 316 9.0
20:30 - 21:00 10.3 10.5 10.1 91 0.0 4.3 323 9.0
21:00 - 21:30 10.2 10.4 10.0 91 0.0 3.6 321 8.6
21:30 - 22:00 10.4 10.4 10.3 89 0.0 4.7 339 10.4
22:00 - 22:30 10.3 10.4 10.2 89 0.0 4.3 336 9.0
22:30 - 23:00 10.4 10.6 10.3 88 0.0 4.0 327 10.4
23:00 - 23:30 10.6 10.7 10.5 87 0.0 5.4 329 10.4

Les dades en taronja només han passat un control de qualitat automàtic. Resta pendent la seva validació definitiva.